Sosnogorsk, Russia
Current Conditions -  °F | °C
As of 2:00 AM on Wednesday 28 Jan 2015 (Local Time) from UUYY Reporting Station
Snow Showers Snow Showers  
Wind Chill:   Ceiling: 6600
Heat Index: 14°   Visibility: 2.7mi
Dew Point: 10°   Wind: 9mph
Humidity: 86%   Direction: 210°SSW
Pressure: 29.88"   Gusts: 16mph
Location:  63.6°N, 53.88°E
Report Text: UUYY 272300Z 21004G07MPS 4400 -SHSN SCT014CB OVC066 M10/M12 Q1012 TEMPO 2000 SHSN 19450238 RMK QFE750/1000
Loading
Personal Weather Stations






























Interactive Weather Map New forecast layout! Learn more

10-Day Weather Forecast

Advertisements
Track Severe Weather on mobile